Time;durP1;ratioP1;P1;durP2;ratioP2;P2;SDS_P1;SDS_P2;PMS_P1;PMS_P2;Temp;Humidity;BMP_temperature;BMP_pressure;BME280_temperature;BME280_humidity;BME280_pressure;Samples;Min_cycle;Max_cycle;Signal;HPM_P1;HPM_P2
2022/05/07 00:02:03;;;;;;;4.87;2.57;;;;;;;13.27;66.12;94967.56;5071329;28;20225;-63
2022/05/07 00:04:28;;;;;;;3.53;2.43;;;;;;;13.26;65.50;94981.28;5071901;28;20606;-63
2022/05/07 00:06:54;;;;;;;3.00;1.97;;;;;;;13.28;65.19;94992.16;5053809;28;20257;-64
2022/05/07 00:09:19;;;;;;;2.60;2.20;;;;;;;13.17;64.94;94982.09;5071829;28;20181;-62
2022/05/07 00:11:48;;;;;;;2.43;2.00;;;;;;;13.05;64.90;94985.75;5071859;28;20212;-60
2022/05/07 00:14:13;;;;;;;2.37;1.80;;;;;;;13.09;65.60;94971.75;5071693;28;20280;-60
2022/05/07 00:19:23;;;;;;;4.77;2.37;;;;;;;13.07;64.54;94983.84;5071400;28;20318;-59
2022/05/07 00:21:48;;;;;;;3.87;2.20;;;;;;;13.07;65.06;94986.41;5071732;28;20335;-60
2022/05/07 00:24:14;;;;;;;7.13;2.60;;;;;;;13.04;64.00;94989.25;5071361;28;20670;-61
2022/05/07 00:26:39;;;;;;;8.30;2.50;;;;;;;12.93;63.80;94991.91;5075384;28;20205;-62
2022/05/07 00:29:06;;;;;;;10.03;2.70;;;;;;;12.94;64.10;94992.72;5075175;28;20212;-59
2022/05/07 00:31:31;;;;;;;4.83;2.53;;;;;;;12.78;65.24;94977.97;5075345;28;20268;-59
2022/05/07 00:33:57;;;;;;;4.60;2.30;;;;;;;12.72;64.65;94967.50;5075141;28;20214;-63
2022/05/07 00:36:23;;;;;;;6.87;2.67;;;;;;;12.71;65.24;94968.41;5075531;28;20189;-62
2022/05/07 00:38:49;;;;;;;7.30;2.43;;;;;;;12.74;64.78;94978.34;5057065;28;20173;-63
2022/05/07 00:41:14;;;;;;;7.43;2.40;;;;;;;12.72;65.06;94970.84;5056866;28;20185;-63
2022/05/07 00:43:41;;;;;;;4.33;2.47;;;;;;;12.81;64.22;94987.06;5074886;28;20562;-59
2022/05/07 00:46:07;;;;;;;4.87;2.60;;;;;;;12.79;63.98;94983.84;5075204;28;20186;-64
2022/05/07 00:48:33;;;;;;;4.70;2.47;;;;;;;12.69;63.90;94978.75;5074672;28;20200;-61
2022/05/07 00:53:46;;;;;;;4.87;2.57;;;;;;;12.58;63.33;94984.00;5074669;28;20629;-61
2022/05/07 00:56:12;;;;;;;4.87;2.97;;;;;;;12.54;63.60;94980.13;5075178;28;20191;-60
2022/05/07 00:58:38;;;;;;;6.07;2.57;;;;;;;12.52;64.23;94969.25;5074600;28;20223;-60
2022/05/07 01:01:04;;;;;;;4.77;2.50;;;;;;;12.64;63.56;94981.69;5074622;28;20639;-60
2022/05/07 01:03:30;;;;;;;3.93;2.30;;;;;;;12.57;63.52;94979.84;5056398;28;20223;-60
2022/05/07 01:05:56;;;;;;;5.47;2.50;;;;;;;12.46;63.62;94973.09;5075162;28;20561;-62
2022/05/07 01:08:21;;;;;;;5.77;2.50;;;;;;;12.48;64.78;94955.16;5074412;28;20200;-60
2022/05/07 01:10:48;;;;;;;9.37;2.47;;;;;;;12.54;63.51;94980.91;5074749;28;20273;-62
2022/05/07 01:13:13;;;;;;;3.23;1.80;;;;;;;12.49;64.73;94955.00;5074374;28;20764;-62
2022/05/07 01:15:46;;;;;;;4.13;2.03;;;;;;;12.51;65.63;94952.31;5074626;28;20216;-60
2022/05/07 01:18:12;;;;;;;4.13;2.47;;;;;;;12.46;64.96;94962.13;5056105;28;20212;-60
2022/05/07 01:20:38;;;;;;;8.20;2.33;;;;;;;12.54;65.16;94964.81;5056235;28;20228;-63
2022/05/07 01:23:04;;;;;;;7.77;2.00;;;;;;;12.59;65.26;94963.47;5074050;28;20283;-60
2022/05/07 01:25:30;;;;;;;8.53;2.53;;;;;;;12.51;65.32;94963.31;5056157;28;20761;-64
2022/05/07 01:27:55;;;;;;;4.67;2.00;;;;;;;12.56;65.47;94957.84;5073972;28;20697;-63
2022/05/07 01:30:21;;;;;;;5.47;2.40;;;;;;;12.61;64.88;94976.06;5073978;28;20619;-59
2022/05/07 01:32:46;;;;;;;2.43;2.17;;;;;;;12.55;65.05;94969.78;5074023;28;20283;-63
2022/05/07 01:35:12;;;;;;;3.30;2.40;;;;;;;12.58;65.08;94978.91;5073115;28;20193;-61
2022/05/07 01:37:38;;;;;;;6.33;2.40;;;;;;;12.51;64.46;94983.72;5073753;28;20205;-60
2022/05/07 01:40:04;;;;;;;5.93;2.00;;;;;;;12.38;63.46;94990.81;5073832;28;20595;-62
2022/05/07 01:42:29;;;;;;;4.70;2.50;;;;;;;12.34;64.58;94973.38;5073674;28;20193;-61
2022/05/07 01:44:55;;;;;;;3.27;2.00;;;;;;;12.27;64.69;94967.19;5073634;28;20169;-60
2022/05/07 01:50:05;;;;;;;3.63;2.17;;;;;;;12.32;65.84;94958.19;5073645;28;20252;-62
2022/05/07 01:52:30;;;;;;;5.17;2.13;;;;;;;12.24;65.82;94949.63;5055443;28;20239;-60
2022/05/07 01:54:56;;;;;;;3.63;2.37;;;;;;;12.25;65.63;94946.94;5073508;28;20746;-59
2022/05/07 01:57:21;;;;;;;4.87;2.13;;;;;;;12.31;65.50;94951.50;5073421;28;20279;-59
2022/05/07 01:59:47;;;;;;;6.00;2.73;;;;;;;12.44;65.74;94953.81;5073398;28;20176;-64
2022/05/07 02:02:12;;;;;;;3.77;2.17;;;;;;;12.39;65.82;94945.72;5055353;28;20243;-59
2022/05/07 02:04:39;;;;;;;6.07;2.13;;;;;;;12.29;65.61;94945.75;5073398;28;20263;-60
2022/05/07 02:07:04;;;;;;;3.50;2.37;;;;;;;12.34;65.95;94947.91;5073956;28;20550;-62
2022/05/07 02:09:30;;;;;;;4.40;2.30;;;;;;;12.35;65.49;94957.13;5055375;28;20177;-63
2022/05/07 02:11:56;;;;;;;5.17;2.70;;;;;;;12.25;66.31;94939.28;5073398;28;20201;-63
2022/05/07 02:14:22;;;;;;;6.47;2.33;;;;;;;12.31;67.00;94938.75;5073250;28;20258;-62
2022/05/07 02:16:47;;;;;;;8.23;2.30;;;;;;;12.15;66.57;94935.94;5073614;28;20201;-63
2022/05/07 02:19:13;;;;;;;6.77;1.97;;;;;;;12.20;67.13;94935.53;5073007;28;20246;-62
2022/05/07 02:21:38;;;;;;;4.77;2.23;;;;;;;12.09;65.16;94963.69;5073313;28;20201;-61
2022/05/07 02:24:04;;;;;;;7.37;2.33;;;;;;;12.03;64.68;94967.56;5072926;28;20181;-59
2022/05/07 02:26:29;;;;;;;2.87;1.93;;;;;;;12.01;64.81;94966.88;5073170;28;20641;-59
2022/05/07 02:28:55;;;;;;;3.90;2.13;;;;;;;11.80;65.56;94949.13;5055041;28;20189;-62
2022/05/07 02:31:20;;;;;;;2.63;2.03;;;;;;;11.68;66.03;94937.44;5073169;28;20642;-61
2022/05/07 02:33:46;;;;;;;2.90;2.40;;;;;;;11.71;66.25;94939.72;5072591;28;20259;-60
2022/05/07 02:36:11;;;;;;;5.57;1.90;;;;;;;11.74;65.60;94946.28;5073328;28;20645;-58
2022/05/07 02:38:38;;;;;;;5.97;2.43;;;;;;;11.76;67.21;94926.59;5072657;28;20200;-59
2022/05/07 02:43:48;;;;;;;2.33;1.93;;;;;;;11.73;67.17;94931.97;5073133;28;20240;-61
2022/05/07 02:46:13;;;;;;;4.10;2.23;;;;;;;11.77;67.51;94929.03;5054536;28;20203;-59
2022/05/07 02:48:39;;;;;;;6.20;2.80;;;;;;;11.71;68.08;94913.47;5072209;28;20212;-60
2022/05/07 02:51:04;;;;;;;8.37;2.27;;;;;;;11.82;66.73;94949.00;5072793;28;20191;-59
2022/05/07 02:53:29;;;;;;;4.33;2.03;;;;;;;11.69;67.40;94936.50;5072214;28;20209;-60
2022/05/07 02:55:55;;;;;;;3.23;2.40;;;;;;;11.80;68.13;94923.66;5054624;28;20286;-61
2022/05/07 02:58:20;;;;;;;7.40;2.23;;;;;;;11.81;68.23;94929.56;5072310;28;20647;-62
2022/05/07 03:00:48;;;;;;;4.07;2.37;;;;;;;11.78;68.23;94932.34;5072324;28;20631;-62
2022/05/07 03:03:14;;;;;;;4.17;2.10;;;;;;;11.68;68.48;94927.25;5054314;28;20251;-63
2022/05/07 03:05:39;;;;;;;3.30;2.40;;;;;;;11.74;69.21;94920.81;5054355;28;20181;-59
2022/05/07 03:08:06;;;;;;;3.37;2.13;;;;;;;11.77;69.05;94933.31;5072417;28;20650;-58
2022/05/07 03:10:31;;;;;;;4.93;2.60;;;;;;;11.72;68.51;94931.13;5071911;28;20208;-63
2022/05/07 03:12:57;;;;;;;3.10;2.47;;;;;;;11.68;69.72;94914.50;5054229;28;20766;-63
2022/05/07 03:15:23;;;;;;;3.93;2.47;;;;;;;11.74;69.53;94924.19;5072075;28;20562;-59
2022/05/07 03:17:48;;;;;;;8.10;3.03;;;;;;;11.66;69.82;94924.03;5071862;28;20205;-61
2022/05/07 03:20:16;;;;;;;3.83;2.10;;;;;;;11.71;69.76;94933.81;5061248;22;20599;-60
2022/05/07 03:22:42;;;;;;;4.90;2.63;;;;;;;11.66;70.37;94926.56;5072105;28;20201;-63
2022/05/07 03:25:07;;;;;;;3.67;2.60;;;;;;;11.72;70.72;94920.16;5054067;28;20183;-60
2022/05/07 03:27:33;;;;;;;6.87;2.70;;;;;;;11.77;70.01;94929.03;5071836;28;20216;-63
2022/05/07 03:29:59;;;;;;;4.77;2.37;;;;;;;11.82;69.48;94936.25;5072456;28;20658;-61
2022/05/07 03:32:24;;;;;;;6.80;2.77;;;;;;;11.64;70.26;94914.88;5072036;28;20220;-59
2022/05/07 03:34:49;;;;;;;5.80;2.77;;;;;;;11.82;69.91;94930.38;5072479;28;20554;-59
2022/05/07 03:37:15;;;;;;;10.00;3.10;;;;;;;11.87;69.53;94931.59;5071730;28;20604;-59
2022/05/07 03:39:41;;;;;;;10.27;3.30;;;;;;;11.84;69.11;94943.78;5072217;28;20250;-63
2022/05/07 03:42:07;;;;;;;4.47;3.23;;;;;;;11.87;69.76;94928.22;5071913;28;20246;-61
2022/05/07 03:44:33;;;;;;;4.07;3.50;;;;;;;11.72;70.38;94920.16;5072084;28;20188;-59
2022/05/07 03:46:58;;;;;;;8.57;3.60;;;;;;;11.69;70.64;94925.50;5053666;28;20227;-61
2022/05/07 03:49:24;;;;;;;4.47;3.30;;;;;;;11.65;71.03;94929.22;5072127;28;20268;-60
2022/05/07 03:54:33;;;;;;;4.60;2.87;;;;;;;11.98;70.31;94945.97;5072541;28;20260;-60
2022/05/07 03:56:58;;;;;;;3.70;2.93;;;;;;;12.13;69.77;94950.53;5071826;28;20659;-60
2022/05/07 03:59:24;;;;;;;4.40;2.83;;;;;;;12.09;70.17;94944.09;5071917;28;20260;-60
2022/05/07 04:01:49;;;;;;;3.83;2.40;;;;;;;12.09;70.38;94945.84;5075243;28;20189;-60
2022/05/07 04:04:15;;;;;;;2.93;2.67;;;;;;;12.01;71.26;94936.31;5076000;28;20199;-59
2022/05/07 04:06:40;;;;;;;8.10;3.03;;;;;;;11.72;71.51;94936.25;5075610;28;20201;-63
2022/05/07 04:09:06;;;;;;;5.33;2.53;;;;;;;11.47;73.13;94923.91;5075939;28;20188;-63
2022/05/07 04:11:31;;;;;;;3.23;2.23;;;;;;;11.65;73.21;94940.22;5075518;28;20569;-59
2022/05/07 04:13:56;;;;;;;5.87;2.37;;;;;;;11.78;73.22;94938.25;5075881;28;20216;-62
2022/05/07 04:16:22;;;;;;;4.03;3.00;;;;;;;11.82;72.44;94970.19;5075418;28;20632;-60
2022/05/07 04:18:47;;;;;;;6.57;3.23;;;;;;;11.59;74.54;94930.56;5075412;28;20193;-63
2022/05/07 04:21:13;;;;;;;4.97;3.00;;;;;;;11.87;73.80;94951.97;5075312;28;20565;-63
2022/05/07 04:23:38;;;;;;;5.67;2.70;;;;;;;12.08;74.24;94946.78;5075252;28;20245;-63
2022/05/07 04:26:04;;;;;;;3.33;2.67;;;;;;;12.08;73.19;94954.44;5075198;28;20226;-61
2022/05/07 04:28:29;;;;;;;5.30;2.40;;;;;;;12.27;73.37;94957.00;5075205;28;20259;-60
2022/05/07 04:30:55;;;;;;;6.23;3.27;;;;;;;12.38;72.85;94954.34;5075116;28;20209;-61
2022/05/07 04:33:21;;;;;;;11.60;3.20;;;;;;;12.44;72.79;94961.44;5075040;28;20286;-59
2022/05/07 04:35:49;;;;;;;4.30;2.70;;;;;;;12.50;72.61;94964.25;5057268;28;20180;-61
2022/05/07 04:38:14;;;;;;;4.63;2.73;;;;;;;12.57;72.25;94970.44;5057064;28;20209;-63
2022/05/07 04:40:40;;;;;;;7.13;3.17;;;;;;;12.63;71.67;94974.19;5075261;28;20554;-61
2022/05/07 04:43:06;;;;;;;4.90;2.90;;;;;;;12.68;71.92;94983.03;5074931;28;20201;-60
2022/05/07 04:45:33;;;;;;;4.23;3.20;;;;;;;12.63;71.06;94999.69;5075268;28;20216;-60
2022/05/07 04:47:59;;;;;;;5.17;2.93;;;;;;;12.66;71.94;94973.94;5074726;28;20299;-59
2022/05/07 04:50:24;;;;;;;8.23;2.80;;;;;;;12.70;72.71;94954.88;5074832;28;20181;-61
2022/05/07 04:52:50;;;;;;;4.33;2.93;;;;;;;12.59;73.65;94945.59;5074516;28;20293;-62
2022/05/07 04:55:15;;;;;;;6.17;3.13;;;;;;;12.56;74.03;94943.31;5074679;28;20169;-59
2022/05/07 04:57:41;;;;;;;5.67;3.30;;;;;;;12.61;72.89;94965.88;5075163;28;20201;-59
2022/05/07 05:00:07;;;;;;;7.93;3.30;;;;;;;12.56;73.49;94947.63;5074474;28;20551;-60
2022/05/07 05:02:33;;;;;;;6.27;3.40;;;;;;;12.49;74.73;94942.25;5074402;28;20185;-64
2022/05/07 05:04:58;;;;;;;8.60;3.07;;;;;;;12.54;74.58;94952.06;5056830;28;20188;-62
2022/05/07 05:07:24;;;;;;;6.27;3.03;;;;;;;12.58;75.08;94940.66;5056503;28;20229;-61
2022/05/07 05:09:49;;;;;;;5.57;3.20;;;;;;;12.53;76.47;94924.94;5074921;28;20177;-60
2022/05/07 05:12:17;;;;;;;5.87;3.10;;;;;;;12.61;76.21;94943.72;5073866;28;20201;-63
2022/05/07 05:15:01;;;;;;;7.97;3.03;;;;;;;12.71;76.68;94930.16;5074676;28;20181;-59
2022/05/07 05:17:28;;;;;;;4.97;3.37;;;;;;;12.88;77.16;94932.84;5056209;28;20208;-60
2022/05/07 05:19:54;;;;;;;5.87;3.53;;;;;;;12.97;75.69;94960.06;5074965;28;20662;-62
2022/05/07 05:22:19;;;;;;;7.90;3.50;;;;;;;13.01;75.44;94958.06;5056136;28;20239;-61
2022/05/07 05:24:45;;;;;;;13.00;3.57;;;;;;;13.02;76.78;94937.50;5056648;28;20590;-62
2022/05/07 05:27:10;;;;;;;6.13;3.63;;;;;;;13.14;74.05;94979.84;5055978;28;20610;-63
2022/05/07 05:29:36;;;;;;;6.37;3.63;;;;;;;13.02;75.05;94964.78;5074459;28;20554;-63
2022/05/07 05:32:02;;;;;;;7.80;3.33;;;;;;;13.08;73.78;94980.38;5074011;28;20203;-63
2022/05/07 05:34:27;;;;;;;7.70;4.07;;;;;;;12.95;75.53;94954.28;5074400;28;20185;-63
2022/05/07 05:36:53;;;;;;;7.32;4.28;;;;;;;13.02;74.20;94975.78;5073786;28;20197;-63
2022/05/07 05:39:18;;;;;;;6.90;3.60;;;;;;;13.05;76.19;94955.13;5074168;28;20192;-63
2022/05/07 05:41:44;;;;;;;4.60;3.33;;;;;;;13.18;75.38;94963.28;5055699;28;20295;-63
2022/05/07 05:44:10;;;;;;;6.85;4.25;;;;;;;13.04;76.31;94937.41;5074035;28;20193;-64
2022/05/07 05:46:36;;;;;;;7.30;4.10;;;;;;;13.18;76.47;94954.81;5073550;28;20215;-63
2022/05/07 05:49:02;;;;;;;5.50;4.07;;;;;;;12.95;76.44;94949.19;5073959;28;20189;-63
2022/05/07 05:51:27;;;;;;;5.20;3.93;;;;;;;13.07;77.00;94940.47;5055409;28;20211;-62
2022/05/07 05:53:53;;;;;;;7.80;3.63;;;;;;;13.07;79.41;94925.16;5080572;22;20242;-63
2022/05/07 05:56:18;;;;;;;7.30;3.83;;;;;;;13.39;78.86;94935.03;5073462;28;20627;-64
2022/05/07 05:58:44;;;;;;;7.53;3.77;;;;;;;13.48;77.79;94942.66;5055474;28;20249;-64
2022/05/07 06:01:11;;;;;;;9.07;4.43;;;;;;;13.71;77.43;95008.72;5073707;28;20184;-64
2022/05/07 06:03:37;;;;;;;10.55;3.58;;;;;;;13.88;72.58;95064.19;5055167;28;20197;-62
2022/05/07 06:06:03;;;;;;;5.73;3.40;;;;;;;13.77;73.33;95044.75;5055437;28;20185;-63
2022/05/07 06:08:29;;;;;;;4.57;3.33;;;;;;;13.72;72.94;95036.66;5055075;28;20208;-63
2022/05/07 06:10:57;;;;;;;7.55;4.05;;;;;;;13.80;73.79;95020.63;5055658;28;20181;-63
2022/05/07 06:13:24;;;;;;;6.80;3.17;;;;;;;13.84;74.19;95004.88;5073067;28;20292;-63
2022/05/07 06:15:52;;;;;;;10.65;3.50;;;;;;;13.92;73.00;95033.09;5072991;28;20240;-62
2022/05/07 06:18:29;;;;;;;7.07;3.47;;;;;;;14.02;72.40;95049.19;5072975;28;20201;-62
2022/05/07 06:20:54;;;;;;;8.20;3.63;;;;;;;14.06;72.14;95042.03;5055036;28;20189;-60
2022/05/07 06:23:20;;;;;;;5.00;3.83;;;;;;;13.99;74.51;94995.00;5072236;28;20209;-61
2022/05/07 06:28:29;;;;;;;8.95;3.67;;;;;;;14.08;74.96;94994.94;5072879;28;20207;-62
2022/05/07 06:30:55;;;;;;;6.35;3.25;;;;;;;14.38;71.35;95083.41;5038342;28;20276;-60
2022/05/07 06:33:21;;;;;;;7.32;3.47;;;;;;;14.33;71.52;95042.09;5072612;28;20228;-62
2022/05/07 06:35:47;;;;;;;32.40;20.42;;;;;;;14.41;75.20;94985.91;5054735;28;20205;-64
2022/05/07 06:38:13;;;;;;;12.88;4.97;;;;;;;14.41;71.09;95054.16;5072843;28;20232;-63
2022/05/07 06:40:39;;;;;;;7.83;4.53;;;;;;;14.58;70.94;95061.88;5072704;28;20181;-59
2022/05/07 06:43:08;;;;;;;15.68;7.25;;;;;;;14.48;72.16;95034.75;5073164;28;20580;-64
2022/05/07 06:45:33;;;;;;;6.17;3.83;;;;;;;14.75;95.68;94945.09;5072602;28;20634;-61
2022/05/07 06:47:59;;;;;;;7.43;3.60;;;;;;;15.32;100.00;94948.88;5072769;28;20205;-62
2022/05/07 06:50:25;;;;;;;6.70;3.58;;;;;;;15.81;100.00;94950.78;5072360;28;20268;-62
2022/05/07 06:52:51;;;;;;;6.65;4.78;;;;;;;16.27;75.56;95073.44;5054503;28;20300;-61
2022/05/07 06:55:18;;;;;;;6.78;3.88;;;;;;;16.54;78.97;95014.19;5072646;28;20295;-61
2022/05/07 06:57:45;;;;;;;7.25;3.85;;;;;;;16.68;66.04;95197.66;5072840;28;20276;-60
2022/05/07 07:00:12;;;;;;;6.95;3.65;;;;;;;16.83;76.31;95036.09;5072326;28;20251;-61
2022/05/07 07:02:38;;;;;;;6.43;3.88;;;;;;;16.75;69.24;95098.50;5072707;28;20214;-62
2022/05/07 07:05:05;;;;;;;6.63;3.60;;;;;;;17.00;75.51;95017.16;5072074;28;20177;-60
2022/05/07 07:07:31;;;;;;;5.53;3.58;;;;;;;17.38;73.95;95048.16;5054455;28;20204;-62
2022/05/07 07:09:57;;;;;;;14.65;4.28;;;;;;;17.53;62.58;95210.31;5072302;28;20180;-63
2022/05/07 07:12:23;;;;;;;9.40;3.92;;;;;;;17.28;63.12;95170.06;5072748;28;20213;-60
2022/05/07 07:14:49;;;;;;;7.35;4.07;;;;;;;17.04;61.95;95183.66;5072009;28;20176;-66
2022/05/07 07:17:16;;;;;;;9.05;3.70;;;;;;;16.91;63.12;95144.75;5054121;28;20731;-62
2022/05/07 07:19:42;;;;;;;8.95;3.45;;;;;;;16.56;63.01;95142.41;5072170;28;20662;-60
2022/05/07 07:22:13;;;;;;;7.15;3.50;;;;;;;16.30;65.61;95085.94;5054331;28;20686;-62
2022/05/07 07:24:39;;;;;;;4.78;3.40;;;;;;;16.29;63.10;95145.13;5072738;28;20181;-61
2022/05/07 07:27:05;;;;;;;6.75;3.00;;;;;;;16.26;62.51;95153.91;5054122;28;20212;-60
2022/05/07 07:29:31;;;;;;;4.65;2.90;;;;;;;16.14;63.59;95119.22;5054274;28;20192;-65
2022/05/07 07:31:57;;;;;;;6.93;3.47;;;;;;;16.29;63.58;95125.41;5072107;28;20201;-64
2022/05/07 07:34:22;;;;;;;7.45;3.33;;;;;;;16.35;63.95;95109.38;5072125;28;20228;-61
2022/05/07 07:36:52;;;;;;;4.00;3.20;;;;;;;16.30;65.47;95069.75;5072131;28;20706;-61
2022/05/07 07:39:18;;;;;;;4.60;3.10;;;;;;;16.45;65.66;95074.16;5054432;28;20208;-61
2022/05/07 07:41:44;;;;;;;9.27;3.05;;;;;;;16.57;64.95;95085.78;5072607;28;20284;-60
2022/05/07 07:44:10;;;;;;;5.10;3.08;;;;;;;16.77;64.19;95096.56;5072571;28;20222;-62
2022/05/07 07:49:20;;;;;;;4.60;3.40;;;;;;;16.64;63.55;95094.44;5072127;28;20239;-61
2022/05/07 07:51:46;;;;;;;7.93;3.22;;;;;;;16.86;61.56;95144.44;5072001;28;20212;-61
2022/05/07 07:54:13;;;;;;;5.65;3.17;;;;;;;17.10;61.75;95143.69;5072035;28;20196;-60
2022/05/07 07:56:38;;;;;;;6.80;3.63;;;;;;;17.08;61.34;95148.19;5072399;28;20696;-61
2022/05/07 07:59:04;;;;;;;12.95;3.30;;;;;;;17.43;62.26;95127.38;5053856;28;20181;-59
2022/05/07 08:01:29;;;;;;;5.95;3.85;;;;;;;17.44;61.88;95128.97;5071918;28;20268;-59
2022/05/07 08:03:55;;;;;;;5.25;3.20;;;;;;;17.67;59.36;95180.59;5073738;28;20184;-62
2022/05/07 08:06:22;;;;;;;4.53;2.78;;;;;;;17.70;60.50;95150.22;5053480;28;20177;-62
2022/05/07 08:11:40;;;;;;;8.52;3.10;;;;;;;17.89;60.11;95154.25;5071422;28;20645;-61
2022/05/07 08:14:13;;;;;;;5.82;2.88;;;;;;;18.13;56.72;95223.69;5071461;28;20204;-64
2022/05/07 08:16:46;;;;;;;4.85;3.33;;;;;;;17.94;55.08;95227.38;5071864;28;20207;-63
2022/05/07 08:19:12;;;;;;;7.05;3.45;;;;;;;18.01;57.05;95191.53;5071546;28;20169;-63
2022/05/07 08:21:37;;;;;;;5.40;2.65;;;;;;;18.02;56.68;95186.22;5071284;28;20208;-64
2022/05/07 08:24:04;;;;;;;5.75;2.88;;;;;;;18.18;58.12;95159.69;5071755;28;20562;-61
2022/05/07 08:26:29;;;;;;;5.15;2.53;;;;;;;18.24;55.99;95213.09;5071604;28;20203;-62
2022/05/07 08:28:55;;;;;;;4.57;2.50;;;;;;;18.13;54.97;95203.91;5071534;28;20209;-64
2022/05/07 08:31:24;;;;;;;7.03;2.88;;;;;;;17.98;53.89;95233.00;5071572;28;20177;-63
2022/05/07 08:33:50;;;;;;;5.50;2.35;;;;;;;17.89;53.63;95228.84;5071132;28;20694;-60
2022/05/07 08:36:16;;;;;;;4.10;2.38;;;;;;;17.78;56.67;95152.78;5071330;28;20196;-59
2022/05/07 08:38:43;;;;;;;6.55;3.15;;;;;;;17.77;54.26;95212.94;5071501;28;20177;-61
2022/05/07 08:41:10;;;;;;;4.07;2.65;;;;;;;17.76;54.67;95201.00;5071284;28;20665;-60
2022/05/07 08:43:38;;;;;;;6.40;2.85;;;;;;;17.77;58.25;95115.19;5071148;28;20640;-61
2022/05/07 08:46:16;;;;;;;3.88;2.58;;;;;;;17.78;58.57;95111.63;5053736;28;20272;-59
2022/05/07 08:48:47;;;;;;;4.85;3.00;;;;;;;17.77;55.05;95184.63;5074966;28;20204;-61
2022/05/07 08:51:16;;;;;;;7.28;3.00;;;;;;;17.94;55.38;95172.56;5075166;28;20193;-60
2022/05/07 08:53:43;;;;;;;8.55;4.80;;;;;;;17.93;57.13;95133.19;5065062;22;20243;-62
2022/05/07 08:56:08;;;;;;;6.03;2.88;;;;;;;18.00;57.26;95134.13;5074824;28;20265;-62
2022/05/07 08:58:34;;;;;;;3.72;3.30;;;;;;;18.33;57.03;95148.53;5074505;28;20193;-60
2022/05/07 09:01:00;;;;;;;4.43;2.78;;;;;;;18.38;53.33;95228.66;5074816;28;20561;-60
2022/05/07 09:03:41;;;;;;;6.15;2.92;;;;;;;18.48;54.67;95179.59;5074357;28;20196;-59
2022/05/07 09:06:24;;;;;;;4.13;2.67;;;;;;;18.43;53.54;95205.03;5074346;28;20188;-60
2022/05/07 09:08:50;;;;;;;5.55;2.92;;;;;;;18.53;51.61;95235.75;5074555;28;20708;-61
2022/05/07 09:11:17;;;;;;;5.40;2.70;;;;;;;18.81;51.52;95232.63;5081705;22;20377;-61
2022/05/07 09:13:43;;;;;;;5.65;2.88;;;;;;;19.01;49.05;95287.16;5074386;28;20203;-63
2022/05/07 09:16:09;;;;;;;6.85;2.50;;;;;;;19.29;49.60;95267.72;5074307;28;20188;-62
2022/05/07 09:18:35;;;;;;;3.92;2.90;;;;;;;19.42;50.08;95237.06;5074427;28;20231;-63
2022/05/07 09:21:26;;;;;;;5.50;2.40;;;;;;;19.60;50.33;95227.31;5074770;28;20639;-62
2022/05/07 09:24:07;;;;;;;6.38;2.70;;;;;;;19.48;49.83;95244.13;5074149;28;20173;-62
2022/05/07 09:26:40;;;;;;;7.53;2.75;;;;;;;19.57;48.50;95260.38;5074104;28;20173;-61
2022/05/07 09:29:10;;;;;;;3.10;2.47;;;;;;;19.70;49.08;95184.03;5074249;28;20638;-62
2022/05/07 09:31:36;;;;;;;2.28;2.08;;;;;;;19.53;45.87;95194.63;5063087;22;20270;-61
2022/05/07 09:37:18;;;;;;;4.97;2.53;;;;;;;19.84;48.61;95125.69;5074388;28;20207;-64
2022/05/07 09:39:48;;;;;;;4.05;2.58;;;;;;;20.18;50.83;95071.00;5074206;28;20189;-61
2022/05/07 09:42:24;;;;;;;7.22;2.47;;;;;;;20.16;47.10;95148.63;5073739;28;20200;-62
2022/05/07 09:44:50;;;;;;;4.68;2.22;;;;;;;20.29;44.42;95181.63;5074692;28;20185;-64
2022/05/07 09:47:16;;;;;;;5.47;2.40;;;;;;;20.14;45.96;95136.88;5073895;28;20189;-64
2022/05/07 09:52:28;;;;;;;5.88;2.40;;;;;;;20.34;45.00;95146.53;5073975;28;20219;-63
2022/05/07 09:57:39;;;;;;;9.20;2.60;;;;;;;20.95;46.00;95109.16;5072741;28;20254;-63
2022/05/07 10:00:10;;;;;;;8.65;2.45;;;;;;;21.10;44.10;95153.94;5073695;28;20193;-59
2022/05/07 10:02:41;;;;;;;12.98;2.63;;;;;;;21.17;41.59;95177.28;5055361;28;20189;-63
2022/05/07 10:05:32;;;;;;;3.80;2.05;;;;;;;21.02;39.29;95221.25;5073716;28;20219;-63
2022/05/07 10:08:12;;;;;;;8.65;2.40;;;;;;;20.83;42.11;95133.88;5073200;28;20196;-62
2022/05/07 10:10:39;;;;;;;7.57;2.97;;;;;;;20.70;43.29;95113.06;5073677;28;20623;-61
2022/05/07 10:13:06;;;;;;;18.05;2.75;;;;;;;20.83;46.20;95056.31;5072923;28;20297;-64
2022/05/07 10:15:32;;;;;;;41.75;4.28;;;;;;;21.04;46.64;95043.47;5073532;28;20189;-65
2022/05/07 10:18:01;;;;;;;12.38;3.00;;;;;;;21.28;45.57;95066.38;5072858;28;20760;-64
2022/05/07 10:20:36;;;;;;;10.13;2.78;;;;;;;21.56;45.29;95075.00;5073340;28;20188;-63
2022/05/07 10:23:02;;;;;;;3.13;2.40;;;;;;;21.77;41.88;95132.91;5072932;28;20196;-64
2022/05/07 10:25:28;;;;;;;5.40;2.78;;;;;;;21.61;42.31;95123.63;5073290;28;20638;-60
2022/05/07 10:27:53;;;;;;;4.00;2.30;;;;;;;21.92;42.48;95111.16;5072617;28;20211;-64
2022/05/07 10:30:24;;;;;;;4.88;2.75;;;;;;;22.29;43.48;95084.09;5054660;28;20201;-61
2022/05/07 10:32:57;;;;;;;3.55;1.58;;;;;;;22.29;38.87;95174.78;5080968;22;20288;-64
2022/05/07 10:35:38;;;;;;;16.42;3.65;;;;;;;22.36;39.46;95153.09;5051530;28;20201;-59
2022/05/07 10:38:24;;;;;;;3.83;2.33;;;;;;;22.65;38.33;95166.84;5052573;28;20204;-61
2022/05/07 10:41:22;;;;;;;3.65;2.13;;;;;;;22.91;40.51;95100.38;5052536;28;20197;-62
2022/05/07 10:44:08;;;;;;;2.40;2.20;;;;;;;22.95;36.48;95176.78;5052879;28;20224;-63
2022/05/07 10:46:43;;;;;;;5.75;2.50;;;;;;;23.02;37.33;95137.94;5052022;28;20263;-62
2022/05/07 10:49:09;;;;;;;5.50;2.65;;;;;;;23.06;37.54;95124.38;5052716;28;20216;-61
2022/05/07 10:51:50;;;;;;;2.72;1.88;;;;;;;23.25;35.34;95161.78;5052545;28;20596;-60
2022/05/07 10:54:22;;;;;;;3.65;2.20;;;;;;;23.41;36.07;95124.31;5052558;28;20237;-61
2022/05/07 10:56:52;;;;;;;4.13;2.10;;;;;;;23.35;34.47;95131.09;5052130;28;20575;-63
2022/05/07 10:59:20;;;;;;;4.53;1.98;;;;;;;23.17;35.11;95117.81;5034397;28;20247;-63
2022/05/07 11:01:46;;;;;;;3.20;1.83;;;;;;;23.14;36.52;95082.69;5052034;28;20288;-63
2022/05/07 11:04:13;;;;;;;3.20;2.35;;;;;;;23.25;34.90;95113.25;5052456;28;20663;-64
2022/05/07 11:06:50;;;;;;;3.83;1.90;;;;;;;23.21;33.19;95156.16;5052040;28;20710;-65
2022/05/07 11:09:23;;;;;;;5.60;2.20;;;;;;;23.35;36.12;95077.38;5051652;28;20181;-62
2022/05/07 11:11:54;;;;;;;2.83;1.63;;;;;;;23.09;34.22;95110.19;5034309;28;20216;-62
2022/05/07 11:14:27;;;;;;;2.88;1.95;;;;;;;23.05;34.12;95120.16;5051805;28;20255;-61
2022/05/07 11:16:53;;;;;;;4.78;1.92;;;;;;;22.78;30.31;95196.28;5051022;28;20710;-61
2022/05/07 11:19:38;;;;;;;2.65;1.55;;;;;;;23.05;31.28;95151.28;5051839;28;20184;-61
2022/05/07 11:22:08;;;;;;;5.15;1.77;;;;;;;23.07;29.60;95154.50;5051972;28;20201;-61
2022/05/07 11:24:34;;;;;;;3.92;2.20;;;;;;;23.26;27.76;95158.97;5052446;28;20187;-61
2022/05/07 11:27:07;;;;;;;2.92;1.50;;;;;;;23.30;27.50;95146.41;5051721;28;20656;-61
2022/05/07 11:29:34;;;;;;;4.47;1.60;;;;;;;23.45;27.61;95120.31;5052515;28;20174;-63
2022/05/07 11:32:07;;;;;;;1.75;1.52;;;;;;;23.48;29.30;95094.75;5033836;28;20217;-63
2022/05/07 11:34:37;;;;;;;2.22;1.90;;;;;;;23.75;28.55;95090.38;5033713;28;20217;-63
2022/05/07 11:37:19;;;;;;;3.95;2.33;;;;;;;23.86;28.50;95076.78;5051544;28;20205;-60
2022/05/07 11:39:59;;;;;;;2.72;1.73;;;;;;;23.73;29.04;95076.81;5052117;28;20239;-61
2022/05/07 11:42:46;;;;;;;3.63;2.10;;;;;;;23.58;27.93;95077.00;5051521;28;20258;-62
2022/05/07 11:45:26;;;;;;;3.38;1.88;;;;;;;23.53;30.13;95026.69;5050870;28;20192;-60
2022/05/07 11:48:03;;;;;;;5.15;2.58;;;;;;;23.55;29.78;95027.28;5050475;28;20202;-61
2022/05/07 11:50:33;;;;;;;6.45;2.20;;;;;;;23.71;30.24;95021.66;5051768;28;20169;-63
2022/05/07 11:53:11;;;;;;;3.75;1.75;;;;;;;24.05;28.91;95056.03;5077382;22;20660;-61
2022/05/07 11:55:37;;;;;;;2.38;1.83;;;;;;;23.92;27.64;95078.56;5071550;28;20187;-63
2022/05/07 11:58:12;;;;;;;5.10;1.73;;;;;;;23.97;27.70;95064.00;5071862;28;20211;-64
2022/05/07 12:00:44;;;;;;;4.38;1.85;;;;;;;23.78;27.08;95079.59;5071580;28;20192;-65
2022/05/07 12:03:10;;;;;;;3.10;1.88;;;;;;;23.68;29.11;95037.63;5071414;28;20235;-65
2022/05/07 12:05:40;;;;;;;5.72;1.70;;;;;;;23.50;27.03;95066.00;5071531;28;20570;-61